sensor_id;sensor_type;location;lat;lon;timestamp;pressure;altitude;pressure_sealevel;temperature;humidity
11678;BME280;5895;41.950;24.372;2023-04-01T00:01:27;86132.00;;;5.12;60.24
11678;BME280;5895;41.950;24.372;2023-04-01T00:03:54;86145.00;;;5.17;60.15
11678;BME280;5895;41.950;24.372;2023-04-01T00:06:23;86143.78;;;5.20;60.99
11678;BME280;5895;41.950;24.372;2023-04-01T00:08:50;86140.28;;;5.14;60.19
11678;BME280;5895;41.950;24.372;2023-04-01T00:11:18;86133.16;;;5.16;60.21
11678;BME280;5895;41.950;24.372;2023-04-01T00:13:47;86141.13;;;5.08;60.08
11678;BME280;5895;41.950;24.372;2023-04-01T00:16:14;86135.63;;;5.04;60.45
11678;BME280;5895;41.950;24.372;2023-04-01T00:18:42;86136.63;;;5.03;60.59
11678;BME280;5895;41.950;24.372;2023-04-01T00:21:09;86143.94;;;5.07;61.03
11678;BME280;5895;41.950;24.372;2023-04-01T00:23:38;86150.41;;;5.09;61.45
11678;BME280;5895;41.950;24.372;2023-04-01T00:26:05;86142.28;;;5.12;60.74
11678;BME280;5895;41.950;24.372;2023-04-01T00:28:34;86134.78;;;5.11;61.47
11678;BME280;5895;41.950;24.372;2023-04-01T00:31:05;86129.22;;;5.14;62.11
11678;BME280;5895;41.950;24.372;2023-04-01T00:33:32;86124.13;;;5.07;61.48
11678;BME280;5895;41.950;24.372;2023-04-01T00:36:06;86118.78;;;5.09;63.95
11678;BME280;5895;41.950;24.372;2023-04-01T00:38:34;86121.00;;;5.05;61.75
11678;BME280;5895;41.950;24.372;2023-04-01T00:41:03;86127.09;;;5.11;62.52
11678;BME280;5895;41.950;24.372;2023-04-01T00:43:31;86123.00;;;5.03;61.87
11678;BME280;5895;41.950;24.372;2023-04-01T00:45:58;86126.50;;;5.09;61.78
11678;BME280;5895;41.950;24.372;2023-04-01T00:48:29;86120.16;;;5.11;62.41
11678;BME280;5895;41.950;24.372;2023-04-01T00:51:00;86118.16;;;5.13;62.29
11678;BME280;5895;41.950;24.372;2023-04-01T00:53:30;86120.88;;;5.18;62.40
11678;BME280;5895;41.950;24.372;2023-04-01T00:56:01;86121.50;;;5.32;65.24
11678;BME280;5895;41.950;24.372;2023-04-01T00:58:36;86112.03;;;5.51;65.54
11678;BME280;5895;41.950;24.372;2023-04-01T01:01:06;86112.09;;;5.63;63.65
11678;BME280;5895;41.950;24.372;2023-04-01T01:03:35;86100.13;;;5.68;62.05
11678;BME280;5895;41.950;24.372;2023-04-01T01:09:22;86089.66;;;5.81;70.34
11678;BME280;5895;41.950;24.372;2023-04-01T01:11:57;86084.66;;;5.87;63.57
11678;BME280;5895;41.950;24.372;2023-04-01T01:14:45;86083.97;;;5.79;63.80
11678;BME280;5895;41.950;24.372;2023-04-01T01:17:21;86089.41;;;5.71;62.62
11678;BME280;5895;41.950;24.372;2023-04-01T01:20:24;86087.41;;;5.73;66.80
11678;BME280;5895;41.950;24.372;2023-04-01T01:23:13;86071.50;;;5.76;64.31
11678;BME280;5895;41.950;24.372;2023-04-01T01:25:50;86060.78;;;5.79;62.76
11678;BME280;5895;41.950;24.372;2023-04-01T01:28:32;86053.63;;;5.81;63.51
11678;BME280;5895;41.950;24.372;2023-04-01T01:31:10;86050.06;;;5.82;64.50
11678;BME280;5895;41.950;24.372;2023-04-01T01:33:55;86050.84;;;5.83;65.89
11678;BME280;5895;41.950;24.372;2023-04-01T01:36:26;86047.59;;;5.88;63.44
11678;BME280;5895;41.950;24.372;2023-04-01T01:38:56;86040.91;;;5.87;62.25
11678;BME280;5895;41.950;24.372;2023-04-01T01:41:25;86042.47;;;5.88;63.03
11678;BME280;5895;41.950;24.372;2023-04-01T01:43:55;86044.03;;;5.89;62.36
11678;BME280;5895;41.950;24.372;2023-04-01T01:46:26;86043.03;;;5.90;62.98
11678;BME280;5895;41.950;24.372;2023-04-01T01:48:55;86046.59;;;5.89;63.25
11678;BME280;5895;41.950;24.372;2023-04-01T01:51:27;86041.06;;;5.92;64.17
11678;BME280;5895;41.950;24.372;2023-04-01T01:53:55;86040.72;;;6.00;63.71
11678;BME280;5895;41.950;24.372;2023-04-01T01:56:23;86048.47;;;6.12;63.39
11678;BME280;5895;41.950;24.372;2023-04-01T01:58:56;86047.41;;;6.19;64.08
11678;BME280;5895;41.950;24.372;2023-04-01T02:01:27;86045.97;;;6.23;62.92
11678;BME280;5895;41.950;24.372;2023-04-01T02:03:55;86054.59;;;6.29;61.85
11678;BME280;5895;41.950;24.372;2023-04-01T02:06:28;86047.06;;;6.27;64.28
11678;BME280;5895;41.950;24.372;2023-04-01T02:08:57;86051.78;;;6.30;62.80
11678;BME280;5895;41.950;24.372;2023-04-01T02:11:29;86056.84;;;6.37;62.81
11678;BME280;5895;41.950;24.372;2023-04-01T02:14:01;86041.38;;;6.37;62.58
11678;BME280;5895;41.950;24.372;2023-04-01T02:16:34;86045.28;;;6.40;63.36
11678;BME280;5895;41.950;24.372;2023-04-01T02:19:03;86039.59;;;6.38;61.45
11678;BME280;5895;41.950;24.372;2023-04-01T02:21:35;86035.56;;;6.42;62.27
11678;BME280;5895;41.950;24.372;2023-04-01T02:24:06;86042.28;;;6.43;62.49
11678;BME280;5895;41.950;24.372;2023-04-01T02:26:36;86041.63;;;6.35;61.41
11678;BME280;5895;41.950;24.372;2023-04-01T02:29:04;86034.78;;;6.29;62.65
11678;BME280;5895;41.950;24.372;2023-04-01T02:31:33;86030.94;;;6.20;62.19
11678;BME280;5895;41.950;24.372;2023-04-01T02:34:02;86033.38;;;6.15;62.49
11678;BME280;5895;41.950;24.372;2023-04-01T02:36:34;86028.25;;;6.15;62.92
11678;BME280;5895;41.950;24.372;2023-04-01T02:39:02;86034.03;;;6.10;62.42
11678;BME280;5895;41.950;24.372;2023-04-01T02:41:30;86022.41;;;6.08;62.81
11678;BME280;5895;41.950;24.372;2023-04-01T02:43:57;86025.09;;;6.01;63.10
11678;BME280;5895;41.950;24.372;2023-04-01T02:46:25;86036.09;;;5.90;62.99
11678;BME280;5895;41.950;24.372;2023-04-01T02:48:52;86038.09;;;5.88;63.02
11678;BME280;5895;41.950;24.372;2023-04-01T02:51:20;86042.13;;;5.84;63.21
11678;BME280;5895;41.950;24.372;2023-04-01T02:53:48;86035.25;;;5.78;63.17
11678;BME280;5895;41.950;24.372;2023-04-01T02:56:15;86035.72;;;5.75;62.81
11678;BME280;5895;41.950;24.372;2023-04-01T02:58:42;86034.34;;;5.72;62.75
11678;BME280;5895;41.950;24.372;2023-04-01T03:01:10;86020.91;;;5.70;63.34
11678;BME280;5895;41.950;24.372;2023-04-01T03:03:37;86014.22;;;5.69;63.88
11678;BME280;5895;41.950;24.372;2023-04-01T03:06:05;86005.94;;;5.67;63.76
11678;BME280;5895;41.950;24.372;2023-04-01T03:08:32;85998.75;;;5.69;63.84
11678;BME280;5895;41.950;24.372;2023-04-01T03:11:01;86008.28;;;5.69;63.84
11678;BME280;5895;41.950;24.372;2023-04-01T03:13:29;86003.13;;;5.69;63.58
11678;BME280;5895;41.950;24.372;2023-04-01T03:15:56;85993.63;;;5.69;64.29
11678;BME280;5895;41.950;24.372;2023-04-01T03:18:23;85995.88;;;5.77;65.26
11678;BME280;5895;41.950;24.372;2023-04-01T03:20:50;85994.56;;;5.87;64.29
11678;BME280;5895;41.950;24.372;2023-04-01T03:23:17;85996.06;;;5.94;63.92
11678;BME280;5895;41.950;24.372;2023-04-01T03:25:45;85995.97;;;6.01;63.95
11678;BME280;5895;41.950;24.372;2023-04-01T03:28:13;85989.94;;;6.07;63.81
11678;BME280;5895;41.950;24.372;2023-04-01T03:30:40;85991.84;;;6.12;63.99
11678;BME280;5895;41.950;24.372;2023-04-01T03:33:08;85995.31;;;6.17;62.73
11678;BME280;5895;41.950;24.372;2023-04-01T03:35:38;85994.66;;;6.22;64.21
11678;BME280;5895;41.950;24.372;2023-04-01T03:38:06;85987.72;;;6.22;62.29
11678;BME280;5895;41.950;24.372;2023-04-01T03:40:33;85980.44;;;6.19;62.64
11678;BME280;5895;41.950;24.372;2023-04-01T03:43:02;85976.06;;;6.20;63.37
11678;BME280;5895;41.950;24.372;2023-04-01T03:45:35;85976.31;;;6.18;63.76
11678;BME280;5895;41.950;24.372;2023-04-01T03:48:02;85987.28;;;6.25;62.96
11678;BME280;5895;41.950;24.372;2023-04-01T03:50:29;85992.44;;;6.25;62.93
11678;BME280;5895;41.950;24.372;2023-04-01T03:52:56;85987.38;;;6.19;61.30
11678;BME280;5895;41.950;24.372;2023-04-01T03:55:23;85988.94;;;6.08;61.98
11678;BME280;5895;41.950;24.372;2023-04-01T03:57:51;85986.09;;;5.98;61.32
11678;BME280;5895;41.950;24.372;2023-04-01T04:00:19;85983.84;;;5.90;61.55
11678;BME280;5895;41.950;24.372;2023-04-01T04:02:47;85982.56;;;5.80;62.35
11678;BME280;5895;41.950;24.372;2023-04-01T04:05:15;85987.81;;;5.74;62.46
11678;BME280;5895;41.950;24.372;2023-04-01T04:07:42;85995.63;;;5.67;62.99
11678;BME280;5895;41.950;24.372;2023-04-01T04:10:10;85987.00;;;5.62;62.36
11678;BME280;5895;41.950;24.372;2023-04-01T04:12:37;85984.22;;;5.63;62.20
11678;BME280;5895;41.950;24.372;2023-04-01T04:15:06;85983.84;;;5.60;63.02
11678;BME280;5895;41.950;24.372;2023-04-01T04:17:33;85990.22;;;5.57;62.74
11678;BME280;5895;41.950;24.372;2023-04-01T04:20:02;85985.50;;;5.54;63.55
11678;BME280;5895;41.950;24.372;2023-04-01T04:22:30;85978.78;;;5.53;63.11
11678;BME280;5895;41.950;24.372;2023-04-01T04:24:57;85967.50;;;5.54;63.09
11678;BME280;5895;41.950;24.372;2023-04-01T04:27:24;85959.56;;;5.55;63.30
11678;BME280;5895;41.950;24.372;2023-04-01T04:29:51;85976.34;;;5.58;63.69
11678;BME280;5895;41.950;24.372;2023-04-01T04:32:18;85981.50;;;5.58;63.42
11678;BME280;5895;41.950;24.372;2023-04-01T04:34:45;85974.78;;;5.57;63.04
11678;BME280;5895;41.950;24.372;2023-04-01T04:37:14;85977.13;;;5.58;63.55
11678;BME280;5895;41.950;24.372;2023-04-01T04:39:41;85975.13;;;5.61;63.20
11678;BME280;5895;41.950;24.372;2023-04-01T04:42:08;85979.06;;;5.63;63.95
11678;BME280;5895;41.950;24.372;2023-04-01T04:44:35;85977.69;;;5.61;63.80
11678;BME280;5895;41.950;24.372;2023-04-01T04:47:03;85968.31;;;5.66;63.34
11678;BME280;5895;41.950;24.372;2023-04-01T04:49:30;85971.91;;;5.65;63.94
11678;BME280;5895;41.950;24.372;2023-04-01T04:51:57;85968.75;;;5.63;64.20
11678;BME280;5895;41.950;24.372;2023-04-01T04:54:26;85965.84;;;5.60;64.27
11678;BME280;5895;41.950;24.372;2023-04-01T04:56:53;85966.50;;;5.55;63.30
11678;BME280;5895;41.950;24.372;2023-04-01T04:59:21;85957.09;;;5.61;63.36
11678;BME280;5895;41.950;24.372;2023-04-01T05:01:48;85961.59;;;5.65;64.21
11678;BME280;5895;41.950;24.372;2023-04-01T05:04:15;85963.25;;;5.60;63.76
11678;BME280;5895;41.950;24.372;2023-04-01T05:06:43;85960.91;;;5.58;64.44
11678;BME280;5895;41.950;24.372;2023-04-01T05:09:11;85956.81;;;5.69;65.55
11678;BME280;5895;41.950;24.372;2023-04-01T05:11:39;85951.81;;;5.86;65.25
11678;BME280;5895;41.950;24.372;2023-04-01T05:14:12;85948.50;;;5.97;67.38
11678;BME280;5895;41.950;24.372;2023-04-01T05:16:40;85942.13;;;6.11;65.15
11678;BME280;5895;41.950;24.372;2023-04-01T05:19:07;85946.06;;;6.25;63.50
11678;BME280;5895;41.950;24.372;2023-04-01T05:21:34;85934.75;;;6.38;63.32
11678;BME280;5895;41.950;24.372;2023-04-01T05:24:01;85937.19;;;6.45;63.23
11678;BME280;5895;41.950;24.372;2023-04-01T05:26:28;85936.41;;;6.56;61.80
11678;BME280;5895;41.950;24.372;2023-04-01T05:28:57;85934.53;;;6.63;63.13
11678;BME280;5895;41.950;24.372;2023-04-01T05:31:24;85931.03;;;6.69;61.98
11678;BME280;5895;41.950;24.372;2023-04-01T05:33:51;85928.56;;;6.74;61.28
11678;BME280;5895;41.950;24.372;2023-04-01T05:36:19;85928.69;;;6.79;62.08
11678;BME280;5895;41.950;24.372;2023-04-01T05:38:46;85923.59;;;6.84;61.04
11678;BME280;5895;41.950;24.372;2023-04-01T05:41:14;85924.28;;;6.92;60.99
11678;BME280;5895;41.950;24.372;2023-04-01T05:43:42;85909.44;;;6.99;59.86
11678;BME280;5895;41.950;24.372;2023-04-01T05:46:11;85913.25;;;7.08;59.52
11678;BME280;5895;41.950;24.372;2023-04-01T05:48:38;85911.84;;;7.17;59.24
11678;BME280;5895;41.950;24.372;2023-04-01T05:51:06;85904.22;;;7.22;59.04
11678;BME280;5895;41.950;24.372;2023-04-01T05:53:33;85899.78;;;7.34;58.24
11678;BME280;5895;41.950;24.372;2023-04-01T05:56:02;85894.97;;;7.38;58.50
11678;BME280;5895;41.950;24.372;2023-04-01T05:58:30;85889.09;;;7.42;57.23
11678;BME280;5895;41.950;24.372;2023-04-01T06:01:01;85883.03;;;7.49;58.59
11678;BME280;5895;41.950;24.372;2023-04-01T06:03:31;85873.31;;;7.56;58.52
11678;BME280;5895;41.950;24.372;2023-04-01T06:05:58;85868.72;;;7.58;57.90
11678;BME280;5895;41.950;24.372;2023-04-01T06:08:27;85861.19;;;7.56;58.27
11678;BME280;5895;41.950;24.372;2023-04-01T06:11:06;85860.06;;;7.64;59.58
11678;BME280;5895;41.950;24.372;2023-04-01T06:13:50;85847.69;;;7.66;59.98
11678;BME280;5895;41.950;24.372;2023-04-01T06:16:35;85838.69;;;7.68;58.61
11678;BME280;5895;41.950;24.372;2023-04-01T06:19:16;85858.63;;;7.73;58.27
11678;BME280;5895;41.950;24.372;2023-04-01T06:24:49;85846.81;;;7.77;58.20
11678;BME280;5895;41.950;24.372;2023-04-01T06:27:33;85843.31;;;7.83;57.90
11678;BME280;5895;41.950;24.372;2023-04-01T06:30:10;85848.56;;;7.88;57.40
11678;BME280;5895;41.950;24.372;2023-04-01T06:33:02;85861.31;;;7.95;58.12
11678;BME280;5895;41.950;24.372;2023-04-01T06:36:00;85856.63;;;7.92;58.55
11678;BME280;5895;41.950;24.372;2023-04-01T06:38:49;85849.25;;;8.01;57.37
11678;BME280;5895;41.950;24.372;2023-04-01T06:41:45;85855.03;;;8.08;57.35
11678;BME280;5895;41.950;24.372;2023-04-01T06:44:24;85859.28;;;8.14;57.45
11678;BME280;5895;41.950;24.372;2023-04-01T06:46:58;85861.91;;;8.19;56.75
11678;BME280;5895;41.950;24.372;2023-04-01T06:49:36;85851.66;;;8.24;57.01
11678;BME280;5895;41.950;24.372;2023-04-01T06:52:14;85844.75;;;8.30;57.06
11678;BME280;5895;41.950;24.372;2023-04-01T06:54:47;85836.88;;;8.36;56.48
11678;BME280;5895;41.950;24.372;2023-04-01T06:57:21;85845.50;;;8.42;57.21
11678;BME280;5895;41.950;24.372;2023-04-01T06:59:51;85847.81;;;8.43;56.62
11678;BME280;5895;41.950;24.372;2023-04-01T07:02:25;85841.16;;;8.47;57.15
11678;BME280;5895;41.950;24.372;2023-04-01T07:04:57;85846.88;;;8.50;56.97
11678;BME280;5895;41.950;24.372;2023-04-01T07:07:33;85852.03;;;8.50;57.03
11678;BME280;5895;41.950;24.372;2023-04-01T07:10:05;85843.88;;;8.58;56.28
11678;BME280;5895;41.950;24.372;2023-04-01T07:12:38;85835.22;;;8.69;57.37
11678;BME280;5895;41.950;24.372;2023-04-01T07:15:17;85829.19;;;8.85;57.10
11678;BME280;5895;41.950;24.372;2023-04-01T07:17:48;85822.47;;;8.84;56.32
11678;BME280;5895;41.950;24.372;2023-04-01T07:20:20;85829.81;;;8.92;57.07
11678;BME280;5895;41.950;24.372;2023-04-01T07:22:52;85827.00;;;8.94;57.05
11678;BME280;5895;41.950;24.372;2023-04-01T07:25:24;85808.88;;;9.16;55.80
11678;BME280;5895;41.950;24.372;2023-04-01T07:27:53;85806.66;;;9.30;55.16
11678;BME280;5895;41.950;24.372;2023-04-01T07:30:23;85802.94;;;9.47;55.55
11678;BME280;5895;41.950;24.372;2023-04-01T07:32:55;85816.91;;;9.73;55.08
11678;BME280;5895;41.950;24.372;2023-04-01T07:35:28;85831.03;;;9.88;55.56
11678;BME280;5895;41.950;24.372;2023-04-01T07:38:11;85816.34;;;10.03;53.82
11678;BME280;5895;41.950;24.372;2023-04-01T07:40:47;85819.28;;;10.12;53.41
11678;BME280;5895;41.950;24.372;2023-04-01T07:43:43;85806.63;;;10.16;53.35
11678;BME280;5895;41.950;24.372;2023-04-01T07:46:21;85812.16;;;10.29;52.87
11678;BME280;5895;41.950;24.372;2023-04-01T07:48:56;85816.16;;;10.47;53.47
11678;BME280;5895;41.950;24.372;2023-04-01T07:51:29;85813.31;;;10.44;52.98
11678;BME280;5895;41.950;24.372;2023-04-01T07:54:04;85818.69;;;10.37;52.64
11678;BME280;5895;41.950;24.372;2023-04-01T07:56:40;85802.09;;;10.33;52.87
11678;BME280;5895;41.950;24.372;2023-04-01T07:59:14;85803.69;;;10.39;51.77
11678;BME280;5895;41.950;24.372;2023-04-01T08:01:47;85800.56;;;10.42;51.49
11678;BME280;5895;41.950;24.372;2023-04-01T08:04:29;85781.44;;;10.53;51.29
11678;BME280;5895;41.950;24.372;2023-04-01T08:07:06;85781.50;;;10.64;51.49
11678;BME280;5895;41.950;24.372;2023-04-01T08:09:42;85784.66;;;10.76;50.70
11678;BME280;5895;41.950;24.372;2023-04-01T08:12:20;85787.28;;;10.81;51.12
11678;BME280;5895;41.950;24.372;2023-04-01T08:15:01;85789.13;;;10.85;50.32
11678;BME280;5895;41.950;24.372;2023-04-01T08:17:41;85779.56;;;10.96;50.56
11678;BME280;5895;41.950;24.372;2023-04-01T08:20:18;85772.63;;;11.12;50.44
11678;BME280;5895;41.950;24.372;2023-04-01T08:22:58;85773.72;;;11.36;50.69
11678;BME280;5895;41.950;24.372;2023-04-01T08:25:29;85768.56;;;11.57;51.18
11678;BME280;5895;41.950;24.372;2023-04-01T08:28:01;85776.63;;;11.65;50.19
11678;BME280;5895;41.950;24.372;2023-04-01T08:30:37;85774.03;;;11.71;48.43
11678;BME280;5895;41.950;24.372;2023-04-01T08:33:10;85768.63;;;11.82;49.77
11678;BME280;5895;41.950;24.372;2023-04-01T08:35:42;85750.44;;;11.93;50.26
11678;BME280;5895;41.950;24.372;2023-04-01T08:38:16;85737.94;;;12.00;49.43
11678;BME280;5895;41.950;24.372;2023-04-01T08:41:00;85739.75;;;12.04;47.95
11678;BME280;5895;41.950;24.372;2023-04-01T08:46:52;85730.69;;;12.07;48.24
11678;BME280;5895;41.950;24.372;2023-04-01T08:49:40;85722.06;;;12.11;48.77
11678;BME280;5895;41.950;24.372;2023-04-01T08:52:22;85717.91;;;12.15;48.53
11678;BME280;5895;41.950;24.372;2023-04-01T08:55:20;85715.84;;;12.12;47.52
11678;BME280;5895;41.950;24.372;2023-04-01T08:58:03;85716.88;;;12.11;48.66
11678;BME280;5895;41.950;24.372;2023-04-01T09:00:36;85715.84;;;12.07;48.67
11678;BME280;5895;41.950;24.372;2023-04-01T09:03:36;85716.38;;;12.04;47.83
11678;BME280;5895;41.950;24.372;2023-04-01T09:06:44;85714.03;;;12.08;46.43
11678;BME280;5895;41.950;24.372;2023-04-01T09:12:53;85741.50;;;12.65;43.29
11678;BME280;5895;41.950;24.372;2023-04-01T09:15:37;85718.78;;;12.91;45.09
11678;BME280;5895;41.950;24.372;2023-04-01T09:18:45;85715.00;;;13.22;43.67
11678;BME280;5895;41.950;24.372;2023-04-01T09:21:32;85705.00;;;13.40;43.56
11678;BME280;5895;41.950;24.372;2023-04-01T09:24:36;85682.47;;;13.59;44.87
11678;BME280;5895;41.950;24.372;2023-04-01T09:27:14;85688.16;;;13.66;42.68
11678;BME280;5895;41.950;24.372;2023-04-01T09:30:13;85679.84;;;13.98;42.50
11678;BME280;5895;41.950;24.372;2023-04-01T09:33:29;85675.94;;;14.25;42.47
11678;BME280;5895;41.950;24.372;2023-04-01T09:36:12;85684.34;;;14.46;44.03
11678;BME280;5895;41.950;24.372;2023-04-01T09:38:54;85681.84;;;14.65;42.81
11678;BME280;5895;41.950;24.372;2023-04-01T09:41:31;85700.63;;;14.67;40.46
11678;BME280;5895;41.950;24.372;2023-04-01T09:44:02;85687.94;;;14.55;43.36
11678;BME280;5895;41.950;24.372;2023-04-01T09:46:52;85683.47;;;14.32;39.70
11678;BME280;5895;41.950;24.372;2023-04-01T09:49:41;85672.59;;;14.19;40.63
11678;BME280;5895;41.950;24.372;2023-04-01T09:52:20;85676.88;;;14.10;41.50
11678;BME280;5895;41.950;24.372;2023-04-01T09:55:25;85667.91;;;14.21;41.91
11678;BME280;5895;41.950;24.372;2023-04-01T10:01:39;85652.94;;;14.03;41.63
11678;BME280;5895;41.950;24.372;2023-04-01T10:04:35;85661.66;;;13.88;42.41
11678;BME280;5895;41.950;24.372;2023-04-01T10:07:29;85637.50;;;13.77;42.98
11678;BME280;5895;41.950;24.372;2023-04-01T10:13:43;85622.25;;;13.61;42.29
11678;BME280;5895;41.950;24.372;2023-04-01T10:16:34;85619.97;;;13.54;42.98
11678;BME280;5895;41.950;24.372;2023-04-01T10:22:56;85610.41;;;13.44;42.70
11678;BME280;5895;41.950;24.372;2023-04-01T10:28:57;85598.69;;;13.42;43.06
11678;BME280;5895;41.950;24.372;2023-04-01T10:32:01;85595.22;;;13.52;45.49
11678;BME280;5895;41.950;24.372;2023-04-01T10:37:57;85600.03;;;13.68;42.69
11678;BME280;5895;41.950;24.372;2023-04-01T10:40:53;85577.91;;;14.48;42.58
11678;BME280;5895;41.950;24.372;2023-04-01T10:43:55;85567.97;;;15.25;41.76
11678;BME280;5895;41.950;24.372;2023-04-01T10:49:48;85564.72;;;16.31;39.02
11678;BME280;5895;41.950;24.372;2023-04-01T10:52:56;85567.53;;;16.49;39.38
11678;BME280;5895;41.950;24.372;2023-04-01T10:55:37;85557.94;;;16.58;39.32
11678;BME280;5895;41.950;24.372;2023-04-01T10:58:44;85548.81;;;16.42;38.50
11678;BME280;5895;41.950;24.372;2023-04-01T11:01:43;85544.84;;;16.58;38.88
11678;BME280;5895;41.950;24.372;2023-04-01T11:16:26;85542.56;;;17.20;38.54
11678;BME280;5895;41.950;24.372;2023-04-01T11:25:06;85540.47;;;16.95;38.62
11678;BME280;5895;41.950;24.372;2023-04-01T11:27:46;85521.13;;;17.18;38.41
11678;BME280;5895;41.950;24.372;2023-04-01T11:30:22;85517.25;;;17.38;40.11
11678;BME280;5895;41.950;24.372;2023-04-01T11:32:59;85521.84;;;17.32;41.13
11678;BME280;5895;41.950;24.372;2023-04-01T11:35:42;85516.59;;;17.55;39.80
11678;BME280;5895;41.950;24.372;2023-04-01T11:38:32;85554.69;;;17.52;37.11
11678;BME280;5895;41.950;24.372;2023-04-01T11:41:15;85515.28;;;17.66;37.36
11678;BME280;5895;41.950;24.372;2023-04-01T11:43:57;85532.69;;;17.76;38.72
11678;BME280;5895;41.950;24.372;2023-04-01T11:46:36;85531.28;;;17.78;38.31
11678;BME280;5895;41.950;24.372;2023-04-01T11:49:21;85542.50;;;17.34;38.58
11678;BME280;5895;41.950;24.372;2023-04-01T11:52:01;85518.16;;;16.83;38.65
11678;BME280;5895;41.950;24.372;2023-04-01T11:54:55;85528.25;;;16.21;37.02
11678;BME280;5895;41.950;24.372;2023-04-01T11:57:46;85520.28;;;15.99;39.45
11678;BME280;5895;41.950;24.372;2023-04-01T12:03:21;85523.25;;;15.46;39.16
11678;BME280;5895;41.950;24.372;2023-04-01T12:05:58;85555.34;;;15.32;41.39
11678;BME280;5895;41.950;24.372;2023-04-01T12:08:38;85519.63;;;15.09;40.86
11678;BME280;5895;41.950;24.372;2023-04-01T12:11:14;85513.66;;;14.90;42.99
11678;BME280;5895;41.950;24.372;2023-04-01T12:13:48;85491.81;;;14.80;42.52
11678;BME280;5895;41.950;24.372;2023-04-01T12:16:29;85509.56;;;14.65;41.83
11678;BME280;5895;41.950;24.372;2023-04-01T12:19:10;85529.34;;;14.47;43.17
11678;BME280;5895;41.950;24.372;2023-04-01T12:21:47;85511.09;;;14.42;43.51
11678;BME280;5895;41.950;24.372;2023-04-01T12:27:35;85504.75;;;14.72;43.00
11678;BME280;5895;41.950;24.372;2023-04-01T12:30:40;85505.47;;;14.77;42.62
11678;BME280;5895;41.950;24.372;2023-04-01T12:33:26;85493.41;;;15.33;42.32
11678;BME280;5895;41.950;24.372;2023-04-01T12:36:08;85513.59;;;15.79;42.61
11678;BME280;5895;41.950;24.372;2023-04-01T12:38:44;85488.84;;;15.71;42.32
11678;BME280;5895;41.950;24.372;2023-04-01T12:41:24;85490.22;;;15.82;42.29
11678;BME280;5895;41.950;24.372;2023-04-01T12:47:06;85490.25;;;15.17;41.59
11678;BME280;5895;41.950;24.372;2023-04-01T12:50:08;85493.09;;;15.02;42.58
11678;BME280;5895;41.950;24.372;2023-04-01T12:52:57;85484.28;;;14.79;43.02
11678;BME280;5895;41.950;24.372;2023-04-01T12:55:47;85501.22;;;14.63;43.50
11678;BME280;5895;41.950;24.372;2023-04-01T13:01:29;85477.28;;;14.37;44.57
11678;BME280;5895;41.950;24.372;2023-04-01T13:04:14;85479.44;;;14.29;43.74
11678;BME280;5895;41.950;24.372;2023-04-01T13:07:01;85512.16;;;14.22;44.19
11678;BME280;5895;41.950;24.372;2023-04-01T13:09:42;85495.28;;;14.14;44.76
11678;BME280;5895;41.950;24.372;2023-04-01T13:12:43;85496.00;;;13.96;42.94
11678;BME280;5895;41.950;24.372;2023-04-01T13:15:26;85497.63;;;13.92;44.91
11678;BME280;5895;41.950;24.372;2023-04-01T13:18:01;85511.50;;;13.87;45.60
11678;BME280;5895;41.950;24.372;2023-04-01T13:20:47;85508.69;;;13.79;46.63
11678;BME280;5895;41.950;24.372;2023-04-01T13:23:28;85510.00;;;13.81;46.87
11678;BME280;5895;41.950;24.372;2023-04-01T13:26:05;85514.25;;;13.72;47.36
11678;BME280;5895;41.950;24.372;2023-04-01T13:28:39;85512.06;;;13.55;47.69
11678;BME280;5895;41.950;24.372;2023-04-01T13:31:18;85513.75;;;13.41;47.79
11678;BME280;5895;41.950;24.372;2023-04-01T13:34:03;85563.06;;;13.32;51.88
11678;BME280;5895;41.950;24.372;2023-04-01T13:36:39;85553.53;;;12.78;53.84
11678;BME280;5895;41.950;24.372;2023-04-01T13:39:36;85573.53;;;12.33;55.60
11678;BME280;5895;41.950;24.372;2023-04-01T13:42:17;85577.28;;;12.07;56.48
11678;BME280;5895;41.950;24.372;2023-04-01T13:44:51;85578.66;;;11.69;58.87
11678;BME280;5895;41.950;24.372;2023-04-01T13:47:36;85585.19;;;11.25;61.47
11678;BME280;5895;41.950;24.372;2023-04-01T13:50:32;85627.44;;;10.70;64.23
11678;BME280;5895;41.950;24.372;2023-04-01T13:56:27;85637.53;;;9.98;66.28
11678;BME280;5895;41.950;24.372;2023-04-01T13:59:07;85621.94;;;9.83;63.89
11678;BME280;5895;41.950;24.372;2023-04-01T14:01:42;85607.78;;;9.59;64.33
11678;BME280;5895;41.950;24.372;2023-04-01T14:04:38;85618.69;;;9.61;68.99
11678;BME280;5895;41.950;24.372;2023-04-01T14:07:28;85609.38;;;9.65;66.07
11678;BME280;5895;41.950;24.372;2023-04-01T14:10:05;85604.47;;;9.63;66.01
11678;BME280;5895;41.950;24.372;2023-04-01T14:12:41;85599.03;;;9.65;66.88
11678;BME280;5895;41.950;24.372;2023-04-01T14:15:22;85574.97;;;9.69;70.48
11678;BME280;5895;41.950;24.372;2023-04-01T14:18:01;85593.34;;;9.68;67.92
11678;BME280;5895;41.950;24.372;2023-04-01T14:20:39;85599.31;;;9.68;67.12
11678;BME280;5895;41.950;24.372;2023-04-01T14:23:24;85576.31;;;9.77;71.29
11678;BME280;5895;41.950;24.372;2023-04-01T14:29:11;85569.09;;;9.89;69.23
11678;BME280;5895;41.950;24.372;2023-04-01T14:31:52;85564.47;;;9.96;69.88
11678;BME280;5895;41.950;24.372;2023-04-01T14:34:35;85557.19;;;9.98;70.12
11678;BME280;5895;41.950;24.372;2023-04-01T14:37:23;85561.13;;;10.01;73.48
11678;BME280;5895;41.950;24.372;2023-04-01T14:40:14;85550.47;;;9.97;70.14
11678;BME280;5895;41.950;24.372;2023-04-01T14:43:13;85546.03;;;9.83;74.16
11678;BME280;5895;41.950;24.372;2023-04-01T14:45:59;85537.41;;;9.67;74.62
11678;BME280;5895;41.950;24.372;2023-04-01T14:48:32;85528.00;;;9.45;69.52
11678;BME280;5895;41.950;24.372;2023-04-01T14:51:15;85536.75;;;9.34;75.64
11678;BME280;5895;41.950;24.372;2023-04-01T14:53:50;85538.69;;;9.12;70.39
11678;BME280;5895;41.950;24.372;2023-04-01T14:56:35;85533.44;;;9.01;78.19
11678;BME280;5895;41.950;24.372;2023-04-01T14:59:14;85524.88;;;8.96;71.93
11678;BME280;5895;41.950;24.372;2023-04-01T15:01:47;85529.00;;;8.97;74.70
11678;BME280;5895;41.950;24.372;2023-04-01T15:04:36;85536.72;;;8.92;81.41
11678;BME280;5895;41.950;24.372;2023-04-01T15:07:21;85540.81;;;8.83;79.23